sensor_id;sensor_type;location;lat;lon;timestamp;P1;durP1;ratioP1;P2;durP2;ratioP2
70825;SDS011;58446;41.490;22.098;2024-03-29T00:01:16;23.27;;;12.50;;
70825;SDS011;58446;41.490;22.098;2024-03-29T00:03:41;28.90;;;14.20;;
70825;SDS011;58446;41.490;22.098;2024-03-29T00:06:08;26.35;;;12.60;;
70825;SDS011;58446;41.490;22.098;2024-03-29T00:08:34;29.43;;;14.03;;
70825;SDS011;58446;41.490;22.098;2024-03-29T00:10:59;22.85;;;13.15;;
70825;SDS011;58446;41.490;22.098;2024-03-29T00:13:25;26.53;;;13.53;;
70825;SDS011;58446;41.490;22.098;2024-03-29T00:15:51;23.88;;;10.77;;
70825;SDS011;58446;41.490;22.098;2024-03-29T00:18:16;23.67;;;11.93;;
70825;SDS011;58446;41.490;22.098;2024-03-29T00:20:42;27.45;;;14.07;;
70825;SDS011;58446;41.490;22.098;2024-03-29T00:23:08;25.47;;;13.37;;
70825;SDS011;58446;41.490;22.098;2024-03-29T00:25:34;17.70;;;9.05;;
70825;SDS011;58446;41.490;22.098;2024-03-29T00:27:59;30.33;;;15.63;;
70825;SDS011;58446;41.490;22.098;2024-03-29T00:30:26;26.42;;;14.10;;
70825;SDS011;58446;41.490;22.098;2024-03-29T00:32:52;21.77;;;13.00;;
70825;SDS011;58446;41.490;22.098;2024-03-29T00:35:17;28.20;;;16.10;;
70825;SDS011;58446;41.490;22.098;2024-03-29T00:37:44;23.88;;;11.73;;
70825;SDS011;58446;41.490;22.098;2024-03-29T00:40:10;23.83;;;11.97;;
70825;SDS011;58446;41.490;22.098;2024-03-29T00:42:36;22.92;;;11.55;;
70825;SDS011;58446;41.490;22.098;2024-03-29T00:45:02;20.85;;;9.98;;
70825;SDS011;58446;41.490;22.098;2024-03-29T00:47:28;17.43;;;10.13;;
70825;SDS011;58446;41.490;22.098;2024-03-29T00:49:53;14.40;;;7.78;;
70825;SDS011;58446;41.490;22.098;2024-03-29T00:52:19;15.07;;;7.87;;
70825;SDS011;58446;41.490;22.098;2024-03-29T00:54:45;15.10;;;7.47;;
70825;SDS011;58446;41.490;22.098;2024-03-29T00:57:10;12.87;;;7.60;;
70825;SDS011;58446;41.490;22.098;2024-03-29T00:59:38;13.98;;;7.65;;
70825;SDS011;58446;41.490;22.098;2024-03-29T01:02:04;12.73;;;7.00;;
70825;SDS011;58446;41.490;22.098;2024-03-29T01:04:29;14.50;;;7.83;;
70825;SDS011;58446;41.490;22.098;2024-03-29T01:06:55;13.88;;;6.90;;
70825;SDS011;58446;41.490;22.098;2024-03-29T01:09:21;20.83;;;10.35;;
70825;SDS011;58446;41.490;22.098;2024-03-29T01:11:47;18.93;;;10.30;;
70825;SDS011;58446;41.490;22.098;2024-03-29T01:14:13;18.70;;;8.90;;
70825;SDS011;58446;41.490;22.098;2024-03-29T01:16:38;16.83;;;8.50;;
70825;SDS011;58446;41.490;22.098;2024-03-29T01:19:04;18.70;;;8.00;;
70825;SDS011;58446;41.490;22.098;2024-03-29T01:21:30;18.05;;;10.27;;
70825;SDS011;58446;41.490;22.098;2024-03-29T01:23:56;17.63;;;9.87;;
70825;SDS011;58446;41.490;22.098;2024-03-29T01:26:22;20.48;;;10.52;;
70825;SDS011;58446;41.490;22.098;2024-03-29T01:28:47;21.57;;;9.87;;
70825;SDS011;58446;41.490;22.098;2024-03-29T01:31:13;16.85;;;8.80;;
70825;SDS011;58446;41.490;22.098;2024-03-29T01:33:39;20.20;;;9.60;;
70825;SDS011;58446;41.490;22.098;2024-03-29T01:36:09;21.70;;;10.73;;
70825;SDS011;58446;41.490;22.098;2024-03-29T01:38:34;21.42;;;9.68;;
70825;SDS011;58446;41.490;22.098;2024-03-29T01:41:00;25.80;;;11.53;;
70825;SDS011;58446;41.490;22.098;2024-03-29T01:43:26;20.70;;;10.90;;
70825;SDS011;58446;41.490;22.098;2024-03-29T01:45:55;22.42;;;9.90;;
70825;SDS011;58446;41.490;22.098;2024-03-29T01:48:22;18.17;;;8.67;;
70825;SDS011;58446;41.490;22.098;2024-03-29T01:50:49;17.52;;;9.25;;
70825;SDS011;58446;41.490;22.098;2024-03-29T01:53:15;19.35;;;9.23;;
70825;SDS011;58446;41.490;22.098;2024-03-29T01:55:43;16.38;;;8.60;;
70825;SDS011;58446;41.490;22.098;2024-03-29T01:58:09;16.98;;;8.27;;
70825;SDS011;58446;41.490;22.098;2024-03-29T02:00:36;13.20;;;7.40;;
70825;SDS011;58446;41.490;22.098;2024-03-29T02:03:07;14.73;;;7.00;;
70825;SDS011;58446;41.490;22.098;2024-03-29T02:05:41;15.30;;;7.88;;
70825;SDS011;58446;41.490;22.098;2024-03-29T02:08:09;14.90;;;7.57;;
70825;SDS011;58446;41.490;22.098;2024-03-29T02:10:35;13.63;;;6.90;;
70825;SDS011;58446;41.490;22.098;2024-03-29T02:13:01;14.60;;;7.37;;
70825;SDS011;58446;41.490;22.098;2024-03-29T02:15:28;12.13;;;6.95;;
70825;SDS011;58446;41.490;22.098;2024-03-29T02:17:54;11.20;;;6.50;;
70825;SDS011;58446;41.490;22.098;2024-03-29T02:20:20;15.10;;;6.73;;
70825;SDS011;58446;41.490;22.098;2024-03-29T02:22:47;14.00;;;6.50;;
70825;SDS011;58446;41.490;22.098;2024-03-29T02:25:25;18.25;;;9.70;;
70825;SDS011;58446;41.490;22.098;2024-03-29T02:27:51;13.63;;;7.65;;
70825;SDS011;58446;41.490;22.098;2024-03-29T02:30:17;14.10;;;7.25;;
70825;SDS011;58446;41.490;22.098;2024-03-29T02:32:43;13.63;;;7.60;;
70825;SDS011;58446;41.490;22.098;2024-03-29T02:35:09;15.38;;;7.18;;
70825;SDS011;58446;41.490;22.098;2024-03-29T02:37:35;15.73;;;8.30;;
70825;SDS011;58446;41.490;22.098;2024-03-29T02:40:02;12.07;;;6.23;;
70825;SDS011;58446;41.490;22.098;2024-03-29T02:42:31;14.52;;;7.53;;
70825;SDS011;58446;41.490;22.098;2024-03-29T02:44:57;12.32;;;6.70;;
70825;SDS011;58446;41.490;22.098;2024-03-29T02:47:23;12.38;;;6.20;;
70825;SDS011;58446;41.490;22.098;2024-03-29T02:49:49;12.20;;;5.70;;
70825;SDS011;58446;41.490;22.098;2024-03-29T02:52:14;11.88;;;5.57;;
70825;SDS011;58446;41.490;22.098;2024-03-29T02:54:41;9.43;;;4.63;;
70825;SDS011;58446;41.490;22.098;2024-03-29T02:57:07;10.48;;;5.65;;
70825;SDS011;58446;41.490;22.098;2024-03-29T02:59:34;10.63;;;5.53;;
70825;SDS011;58446;41.490;22.098;2024-03-29T03:01:59;11.87;;;6.40;;
70825;SDS011;58446;41.490;22.098;2024-03-29T03:04:25;11.93;;;5.35;;
70825;SDS011;58446;41.490;22.098;2024-03-29T03:06:51;10.50;;;5.45;;
70825;SDS011;58446;41.490;22.098;2024-03-29T03:09:17;10.07;;;4.97;;
70825;SDS011;58446;41.490;22.098;2024-03-29T03:12:01;10.88;;;4.93;;
70825;SDS011;58446;41.490;22.098;2024-03-29T03:14:27;12.48;;;6.10;;
70825;SDS011;58446;41.490;22.098;2024-03-29T03:16:52;9.90;;;5.57;;
70825;SDS011;58446;41.490;22.098;2024-03-29T03:19:18;10.25;;;5.07;;
70825;SDS011;58446;41.490;22.098;2024-03-29T03:21:44;10.03;;;4.77;;
70825;SDS011;58446;41.490;22.098;2024-03-29T03:24:10;12.07;;;4.75;;
70825;SDS011;58446;41.490;22.098;2024-03-29T03:26:37;9.27;;;4.35;;
70825;SDS011;58446;41.490;22.098;2024-03-29T03:29:03;10.23;;;4.38;;
70825;SDS011;58446;41.490;22.098;2024-03-29T03:31:29;9.90;;;3.87;;
70825;SDS011;58446;41.490;22.098;2024-03-29T03:33:55;8.15;;;4.63;;
70825;SDS011;58446;41.490;22.098;2024-03-29T03:36:20;9.70;;;3.70;;
70825;SDS011;58446;41.490;22.098;2024-03-29T03:38:46;8.82;;;4.07;;
70825;SDS011;58446;41.490;22.098;2024-03-29T03:41:12;11.30;;;4.57;;
70825;SDS011;58446;41.490;22.098;2024-03-29T03:43:38;11.63;;;4.30;;
70825;SDS011;58446;41.490;22.098;2024-03-29T03:46:03;10.95;;;4.80;;
70825;SDS011;58446;41.490;22.098;2024-03-29T03:48:29;10.07;;;4.60;;
70825;SDS011;58446;41.490;22.098;2024-03-29T03:50:55;8.73;;;5.13;;
70825;SDS011;58446;41.490;22.098;2024-03-29T03:53:21;12.33;;;5.63;;
70825;SDS011;58446;41.490;22.098;2024-03-29T03:55:48;10.38;;;5.00;;
70825;SDS011;58446;41.490;22.098;2024-03-29T03:58:14;10.48;;;5.00;;
70825;SDS011;58446;41.490;22.098;2024-03-29T04:00:39;10.27;;;5.25;;
70825;SDS011;58446;41.490;22.098;2024-03-29T04:03:05;11.43;;;5.00;;
70825;SDS011;58446;41.490;22.098;2024-03-29T04:05:31;9.95;;;4.70;;
70825;SDS011;58446;41.490;22.098;2024-03-29T04:07:57;11.37;;;5.40;;
70825;SDS011;58446;41.490;22.098;2024-03-29T04:10:23;11.55;;;5.40;;
70825;SDS011;58446;41.490;22.098;2024-03-29T04:12:52;12.60;;;6.60;;
70825;SDS011;58446;41.490;22.098;2024-03-29T04:15:18;14.80;;;7.07;;
70825;SDS011;58446;41.490;22.098;2024-03-29T04:17:44;15.98;;;7.18;;
70825;SDS011;58446;41.490;22.098;2024-03-29T04:20:09;18.10;;;7.47;;
70825;SDS011;58446;41.490;22.098;2024-03-29T04:22:35;18.33;;;8.87;;
70825;SDS011;58446;41.490;22.098;2024-03-29T04:25:01;22.60;;;10.88;;
70825;SDS011;58446;41.490;22.098;2024-03-29T04:27:27;19.60;;;9.93;;
70825;SDS011;58446;41.490;22.098;2024-03-29T04:29:53;24.53;;;11.33;;
70825;SDS011;58446;41.490;22.098;2024-03-29T04:32:19;20.35;;;9.88;;
70825;SDS011;58446;41.490;22.098;2024-03-29T04:34:46;20.20;;;10.52;;
70825;SDS011;58446;41.490;22.098;2024-03-29T04:37:15;20.23;;;10.02;;
70825;SDS011;58446;41.490;22.098;2024-03-29T04:39:44;19.42;;;10.77;;
70825;SDS011;58446;41.490;22.098;2024-03-29T04:42:11;24.20;;;12.67;;
70825;SDS011;58446;41.490;22.098;2024-03-29T04:44:37;39.70;;;24.30;;
70825;SDS011;58446;41.490;22.098;2024-03-29T04:47:04;26.88;;;14.07;;
70825;SDS011;58446;41.490;22.098;2024-03-29T04:49:30;27.67;;;15.15;;
70825;SDS011;58446;41.490;22.098;2024-03-29T04:51:58;26.30;;;13.82;;
70825;SDS011;58446;41.490;22.098;2024-03-29T04:54:25;22.40;;;12.60;;
70825;SDS011;58446;41.490;22.098;2024-03-29T04:56:52;21.55;;;12.32;;
70825;SDS011;58446;41.490;22.098;2024-03-29T04:59:18;16.05;;;8.73;;
70825;SDS011;58446;41.490;22.098;2024-03-29T05:01:48;16.52;;;8.60;;
70825;SDS011;58446;41.490;22.098;2024-03-29T05:04:16;16.55;;;9.40;;
70825;SDS011;58446;41.490;22.098;2024-03-29T05:06:44;17.67;;;7.53;;
70825;SDS011;58446;41.490;22.098;2024-03-29T05:09:10;17.85;;;9.38;;
70825;SDS011;58446;41.490;22.098;2024-03-29T05:11:37;19.27;;;8.35;;
70825;SDS011;58446;41.490;22.098;2024-03-29T05:14:03;13.45;;;5.95;;
70825;SDS011;58446;41.490;22.098;2024-03-29T05:16:29;14.43;;;7.10;;
70825;SDS011;58446;41.490;22.098;2024-03-29T05:18:55;23.93;;;9.77;;
70825;SDS011;58446;41.490;22.098;2024-03-29T05:21:20;12.05;;;6.50;;
70825;SDS011;58446;41.490;22.098;2024-03-29T05:23:46;8.93;;;4.20;;
70825;SDS011;58446;41.490;22.098;2024-03-29T05:26:12;12.90;;;2.88;;
70825;SDS011;58446;41.490;22.098;2024-03-29T05:28:37;10.57;;;4.90;;
70825;SDS011;58446;41.490;22.098;2024-03-29T05:31:13;10.15;;;4.03;;
70825;SDS011;58446;41.490;22.098;2024-03-29T05:33:40;7.93;;;3.23;;
70825;SDS011;58446;41.490;22.098;2024-03-29T05:36:06;6.90;;;3.42;;
70825;SDS011;58446;41.490;22.098;2024-03-29T05:38:33;6.97;;;3.33;;
70825;SDS011;58446;41.490;22.098;2024-03-29T05:40:59;7.15;;;3.13;;
70825;SDS011;58446;41.490;22.098;2024-03-29T05:43:25;6.80;;;3.40;;
70825;SDS011;58446;41.490;22.098;2024-03-29T05:45:54;7.77;;;2.50;;
70825;SDS011;58446;41.490;22.098;2024-03-29T05:48:20;8.70;;;3.40;;
70825;SDS011;58446;41.490;22.098;2024-03-29T05:50:45;6.53;;;3.17;;
70825;SDS011;58446;41.490;22.098;2024-03-29T05:53:11;7.15;;;2.83;;
70825;SDS011;58446;41.490;22.098;2024-03-29T05:55:37;10.10;;;4.30;;
70825;SDS011;58446;41.490;22.098;2024-03-29T05:58:03;9.00;;;3.38;;
70825;SDS011;58446;41.490;22.098;2024-03-29T06:00:31;7.38;;;3.30;;
70825;SDS011;58446;41.490;22.098;2024-03-29T06:02:58;8.02;;;3.70;;
70825;SDS011;58446;41.490;22.098;2024-03-29T06:05:23;8.97;;;3.87;;
70825;SDS011;58446;41.490;22.098;2024-03-29T06:07:49;7.70;;;3.85;;
70825;SDS011;58446;41.490;22.098;2024-03-29T06:10:15;8.20;;;3.20;;
70825;SDS011;58446;41.490;22.098;2024-03-29T06:12:42;7.22;;;3.72;;
70825;SDS011;58446;41.490;22.098;2024-03-29T06:15:07;8.23;;;3.87;;
70825;SDS011;58446;41.490;22.098;2024-03-29T06:17:51;7.68;;;3.78;;
70825;SDS011;58446;41.490;22.098;2024-03-29T06:20:17;7.47;;;3.15;;
70825;SDS011;58446;41.490;22.098;2024-03-29T06:22:43;9.60;;;5.60;;
70825;SDS011;58446;41.490;22.098;2024-03-29T06:25:09;12.88;;;7.60;;
70825;SDS011;58446;41.490;22.098;2024-03-29T06:27:35;14.33;;;8.20;;
70825;SDS011;58446;41.490;22.098;2024-03-29T06:30:03;11.82;;;6.13;;
70825;SDS011;58446;41.490;22.098;2024-03-29T06:32:32;13.43;;;5.35;;
70825;SDS011;58446;41.490;22.098;2024-03-29T06:34:58;10.18;;;4.13;;
70825;SDS011;58446;41.490;22.098;2024-03-29T06:37:24;8.27;;;3.92;;
70825;SDS011;58446;41.490;22.098;2024-03-29T06:39:50;7.90;;;3.47;;
70825;SDS011;58446;41.490;22.098;2024-03-29T06:42:42;11.05;;;4.10;;
70825;SDS011;58446;41.490;22.098;2024-03-29T06:45:07;8.70;;;4.20;;
70825;SDS011;58446;41.490;22.098;2024-03-29T06:47:35;7.53;;;4.18;;
70825;SDS011;58446;41.490;22.098;2024-03-29T06:50:00;7.80;;;3.50;;
70825;SDS011;58446;41.490;22.098;2024-03-29T06:52:26;8.53;;;3.03;;
70825;SDS011;58446;41.490;22.098;2024-03-29T06:54:52;7.50;;;2.70;;
70825;SDS011;58446;41.490;22.098;2024-03-29T06:57:18;8.95;;;3.30;;
70825;SDS011;58446;41.490;22.098;2024-03-29T06:59:48;8.80;;;3.00;;
70825;SDS011;58446;41.490;22.098;2024-03-29T07:02:14;7.93;;;2.37;;
70825;SDS011;58446;41.490;22.098;2024-03-29T07:04:41;6.28;;;2.20;;
70825;SDS011;58446;41.490;22.098;2024-03-29T07:07:06;6.97;;;2.47;;
70825;SDS011;58446;41.490;22.098;2024-03-29T07:09:32;6.75;;;2.45;;
70825;SDS011;58446;41.490;22.098;2024-03-29T07:11:58;6.53;;;2.43;;
70825;SDS011;58446;41.490;22.098;2024-03-29T07:14:23;7.38;;;2.30;;
70825;SDS011;58446;41.490;22.098;2024-03-29T07:16:51;8.27;;;2.47;;
70825;SDS011;58446;41.490;22.098;2024-03-29T07:19:18;7.25;;;2.40;;
70825;SDS011;58446;41.490;22.098;2024-03-29T07:21:44;6.10;;;2.37;;
70825;SDS011;58446;41.490;22.098;2024-03-29T07:24:10;6.00;;;2.17;;
70825;SDS011;58446;41.490;22.098;2024-03-29T07:26:36;7.85;;;2.72;;
70825;SDS011;58446;41.490;22.098;2024-03-29T07:29:02;7.60;;;2.47;;
70825;SDS011;58446;41.490;22.098;2024-03-29T07:31:30;6.40;;;2.65;;
70825;SDS011;58446;41.490;22.098;2024-03-29T07:33:56;8.60;;;3.38;;
70825;SDS011;58446;41.490;22.098;2024-03-29T07:36:22;6.65;;;2.63;;
70825;SDS011;58446;41.490;22.098;2024-03-29T07:38:50;6.83;;;2.33;;
70825;SDS011;58446;41.490;22.098;2024-03-29T07:41:16;8.38;;;3.30;;
70825;SDS011;58446;41.490;22.098;2024-03-29T07:43:52;6.78;;;3.13;;
70825;SDS011;58446;41.490;22.098;2024-03-29T07:46:26;6.77;;;2.60;;
70825;SDS011;58446;41.490;22.098;2024-03-29T07:48:53;6.35;;;2.42;;
70825;SDS011;58446;41.490;22.098;2024-03-29T07:51:19;6.38;;;2.30;;
70825;SDS011;58446;41.490;22.098;2024-03-29T07:53:44;7.70;;;2.83;;
70825;SDS011;58446;41.490;22.098;2024-03-29T07:56:10;6.35;;;2.10;;
70825;SDS011;58446;41.490;22.098;2024-03-29T07:58:36;6.65;;;2.40;;
70825;SDS011;58446;41.490;22.098;2024-03-29T08:01:02;5.97;;;2.03;;
70825;SDS011;58446;41.490;22.098;2024-03-29T08:03:28;8.05;;;2.58;;
70825;SDS011;58446;41.490;22.098;2024-03-29T08:06:03;9.27;;;3.27;;
70825;SDS011;58446;41.490;22.098;2024-03-29T08:08:32;6.13;;;1.83;;
70825;SDS011;58446;41.490;22.098;2024-03-29T08:10:58;6.95;;;2.25;;
70825;SDS011;58446;41.490;22.098;2024-03-29T08:13:25;6.53;;;2.00;;
70825;SDS011;58446;41.490;22.098;2024-03-29T08:15:58;5.72;;;2.03;;
70825;SDS011;58446;41.490;22.098;2024-03-29T08:18:25;5.30;;;2.13;;
70825;SDS011;58446;41.490;22.098;2024-03-29T08:20:52;7.55;;;2.70;;
70825;SDS011;58446;41.490;22.098;2024-03-29T08:23:20;6.40;;;2.35;;
70825;SDS011;58446;41.490;22.098;2024-03-29T08:25:48;6.78;;;2.20;;
70825;SDS011;58446;41.490;22.098;2024-03-29T08:28:14;7.40;;;2.80;;
70825;SDS011;58446;41.490;22.098;2024-03-29T08:30:40;6.50;;;2.40;;
70825;SDS011;58446;41.490;22.098;2024-03-29T08:33:06;6.50;;;1.75;;
70825;SDS011;58446;41.490;22.098;2024-03-29T08:35:34;7.57;;;1.87;;
70825;SDS011;58446;41.490;22.098;2024-03-29T08:38:00;7.30;;;2.10;;
70825;SDS011;58446;41.490;22.098;2024-03-29T08:40:27;6.97;;;1.67;;
70825;SDS011;58446;41.490;22.098;2024-03-29T08:42:56;6.68;;;2.10;;
70825;SDS011;58446;41.490;22.098;2024-03-29T08:45:22;5.97;;;2.00;;
70825;SDS011;58446;41.490;22.098;2024-03-29T08:47:48;5.28;;;1.77;;
70825;SDS011;58446;41.490;22.098;2024-03-29T08:50:14;5.85;;;1.85;;
70825;SDS011;58446;41.490;22.098;2024-03-29T08:52:40;4.38;;;1.70;;
70825;SDS011;58446;41.490;22.098;2024-03-29T08:55:06;4.97;;;1.90;;
70825;SDS011;58446;41.490;22.098;2024-03-29T08:57:32;6.70;;;2.00;;
70825;SDS011;58446;41.490;22.098;2024-03-29T08:59:58;6.38;;;2.40;;
70825;SDS011;58446;41.490;22.098;2024-03-29T09:02:24;5.63;;;1.87;;
70825;SDS011;58446;41.490;22.098;2024-03-29T09:04:50;6.97;;;2.40;;
70825;SDS011;58446;41.490;22.098;2024-03-29T09:07:16;6.63;;;3.03;;
70825;SDS011;58446;41.490;22.098;2024-03-29T09:09:41;6.77;;;2.60;;
70825;SDS011;58446;41.490;22.098;2024-03-29T09:12:08;6.82;;;2.30;;
70825;SDS011;58446;41.490;22.098;2024-03-29T09:14:34;7.13;;;3.78;;
70825;SDS011;58446;41.490;22.098;2024-03-29T09:16:59;5.77;;;2.13;;
70825;SDS011;58446;41.490;22.098;2024-03-29T09:19:27;6.38;;;2.15;;
70825;SDS011;58446;41.490;22.098;2024-03-29T09:21:52;5.32;;;2.22;;
70825;SDS011;58446;41.490;22.098;2024-03-29T09:24:18;5.70;;;1.70;;
70825;SDS011;58446;41.490;22.098;2024-03-29T09:26:48;6.28;;;1.98;;
70825;SDS011;58446;41.490;22.098;2024-03-29T09:29:15;4.97;;;1.38;;
70825;SDS011;58446;41.490;22.098;2024-03-29T09:31:43;7.22;;;1.52;;
70825;SDS011;58446;41.490;22.098;2024-03-29T09:34:08;6.37;;;2.03;;
70825;SDS011;58446;41.490;22.098;2024-03-29T09:36:34;5.43;;;1.67;;
70825;SDS011;58446;41.490;22.098;2024-03-29T09:39:00;5.17;;;1.20;;
70825;SDS011;58446;41.490;22.098;2024-03-29T09:41:26;5.35;;;1.42;;
70825;SDS011;58446;41.490;22.098;2024-03-29T09:43:54;5.45;;;1.40;;
70825;SDS011;58446;41.490;22.098;2024-03-29T09:46:37;7.10;;;1.90;;
70825;SDS011;58446;41.490;22.098;2024-03-29T09:49:05;4.90;;;1.10;;
70825;SDS011;58446;41.490;22.098;2024-03-29T09:51:38;5.30;;;1.52;;
70825;SDS011;58446;41.490;22.098;2024-03-29T09:54:05;5.75;;;1.65;;
70825;SDS011;58446;41.490;22.098;2024-03-29T09:56:38;5.93;;;2.00;;
70825;SDS011;58446;41.490;22.098;2024-03-29T09:59:05;7.03;;;1.77;;
70825;SDS011;58446;41.490;22.098;2024-03-29T10:01:31;4.93;;;1.70;;
70825;SDS011;58446;41.490;22.098;2024-03-29T10:04:02;5.95;;;1.92;;
70825;SDS011;58446;41.490;22.098;2024-03-29T10:06:29;4.75;;;1.70;;
70825;SDS011;58446;41.490;22.098;2024-03-29T10:08:56;5.43;;;1.77;;
70825;SDS011;58446;41.490;22.098;2024-03-29T10:11:23;7.30;;;2.22;;
70825;SDS011;58446;41.490;22.098;2024-03-29T10:13:50;7.20;;;1.77;;
70825;SDS011;58446;41.490;22.098;2024-03-29T10:16:18;5.65;;;1.00;;
70825;SDS011;58446;41.490;22.098;2024-03-29T10:18:47;5.20;;;1.40;;
70825;SDS011;58446;41.490;22.098;2024-03-29T10:21:13;5.60;;;1.20;;
70825;SDS011;58446;41.490;22.098;2024-03-29T10:23:40;4.70;;;1.27;;
70825;SDS011;58446;41.490;22.098;2024-03-29T10:26:06;6.03;;;1.65;;
70825;SDS011;58446;41.490;22.098;2024-03-29T10:28:32;4.68;;;1.20;;
70825;SDS011;58446;41.490;22.098;2024-03-29T10:31:00;5.30;;;1.20;;
70825;SDS011;58446;41.490;22.098;2024-03-29T10:33:29;4.97;;;0.88;;
70825;SDS011;58446;41.490;22.098;2024-03-29T10:36:01;5.38;;;1.80;;
70825;SDS011;58446;41.490;22.098;2024-03-29T10:38:33;4.30;;;0.90;;
70825;SDS011;58446;41.490;22.098;2024-03-29T10:41:01;4.32;;;1.58;;
70825;SDS011;58446;41.490;22.098;2024-03-29T10:43:28;6.27;;;1.40;;
70825;SDS011;58446;41.490;22.098;2024-03-29T10:45:55;4.65;;;1.42;;
70825;SDS011;58446;41.490;22.098;2024-03-29T10:48:25;4.30;;;1.10;;
70825;SDS011;58446;41.490;22.098;2024-03-29T10:50:54;6.10;;;1.52;;
70825;SDS011;58446;41.490;22.098;2024-03-29T10:53:26;5.43;;;1.30;;
70825;SDS011;58446;41.490;22.098;2024-03-29T10:55:56;4.43;;;1.20;;
70825;SDS011;58446;41.490;22.098;2024-03-29T10:58:25;5.40;;;1.15;;
70825;SDS011;58446;41.490;22.098;2024-03-29T11:00:58;5.63;;;1.98;;
70825;SDS011;58446;41.490;22.098;2024-03-29T11:05:52;4.10;;;1.30;;
70825;SDS011;58446;41.490;22.098;2024-03-29T11:08:26;6.97;;;1.40;;
70825;SDS011;58446;41.490;22.098;2024-03-29T11:10:57;4.93;;;1.13;;
70825;SDS011;58446;41.490;22.098;2024-03-29T11:16:23;6.07;;;1.00;;
70825;SDS011;58446;41.490;22.098;2024-03-29T11:18:50;5.18;;;1.23;;
70825;SDS011;58446;41.490;22.098;2024-03-29T11:21:17;7.13;;;1.00;;
70825;SDS011;58446;41.490;22.098;2024-03-29T11:23:49;4.20;;;0.70;;
70825;SDS011;58446;41.490;22.098;2024-03-29T11:26:17;5.32;;;1.80;;
70825;SDS011;58446;41.490;22.098;2024-03-29T11:28:52;7.78;;;1.80;;
70825;SDS011;58446;41.490;22.098;2024-03-29T11:31:22;8.98;;;2.47;;
70825;SDS011;58446;41.490;22.098;2024-03-29T11:33:49;5.87;;;1.47;;
70825;SDS011;58446;41.490;22.098;2024-03-29T11:36:18;6.80;;;1.25;;
70825;SDS011;58446;41.490;22.098;2024-03-29T11:38:50;5.68;;;2.05;;
70825;SDS011;58446;41.490;22.098;2024-03-29T11:41:17;5.65;;;1.13;;
70825;SDS011;58446;41.490;22.098;2024-03-29T11:43:47;4.38;;;1.33;;
70825;SDS011;58446;41.490;22.098;2024-03-29T11:46:13;5.53;;;1.23;;
70825;SDS011;58446;41.490;22.098;2024-03-29T11:48:40;4.53;;;1.10;;
70825;SDS011;58446;41.490;22.098;2024-03-29T11:51:07;4.75;;;0.88;;
70825;SDS011;58446;41.490;22.098;2024-03-29T11:53:36;3.90;;;0.80;;
70825;SDS011;58446;41.490;22.098;2024-03-29T11:56:02;5.13;;;0.90;;
70825;SDS011;58446;41.490;22.098;2024-03-29T11:58:30;3.85;;;0.70;;
70825;SDS011;58446;41.490;22.098;2024-03-29T12:00:58;4.72;;;0.82;;
70825;SDS011;58446;41.490;22.098;2024-03-29T12:03:25;4.15;;;0.88;;
70825;SDS011;58446;41.490;22.098;2024-03-29T12:05:52;4.95;;;1.40;;
70825;SDS011;58446;41.490;22.098;2024-03-29T12:08:23;4.17;;;1.33;;
70825;SDS011;58446;41.490;22.098;2024-03-29T12:10:51;5.03;;;1.08;;
70825;SDS011;58446;41.490;22.098;2024-03-29T12:13:17;3.85;;;1.10;;
70825;SDS011;58446;41.490;22.098;2024-03-29T12:15:45;4.13;;;0.90;;
70825;SDS011;58446;41.490;22.098;2024-03-29T12:18:13;5.13;;;0.87;;
70825;SDS011;58446;41.490;22.098;2024-03-29T12:20:42;4.28;;;0.82;;
70825;SDS011;58446;41.490;22.098;2024-03-29T12:23:15;3.88;;;1.23;;
70825;SDS011;58446;41.490;22.098;2024-03-29T12:25:42;4.40;;;1.08;;
70825;SDS011;58446;41.490;22.098;2024-03-29T12:28:10;4.13;;;1.10;;
70825;SDS011;58446;41.490;22.098;2024-03-29T12:30:37;4.37;;;1.03;;
70825;SDS011;58446;41.490;22.098;2024-03-29T12:33:09;3.63;;;1.02;;
70825;SDS011;58446;41.490;22.098;2024-03-29T12:35:43;3.70;;;1.27;;
70825;SDS011;58446;41.490;22.098;2024-03-29T12:38:13;4.05;;;0.70;;
70825;SDS011;58446;41.490;22.098;2024-03-29T12:40:46;4.63;;;0.90;;
70825;SDS011;58446;41.490;22.098;2024-03-29T12:43:19;5.27;;;0.73;;
70825;SDS011;58446;41.490;22.098;2024-03-29T12:45:46;5.32;;;0.93;;
70825;SDS011;58446;41.490;22.098;2024-03-29T12:48:17;4.40;;;0.95;;
70825;SDS011;58446;41.490;22.098;2024-03-29T12:50:46;4.75;;;0.90;;
70825;SDS011;58446;41.490;22.098;2024-03-29T12:53:13;4.72;;;1.20;;
70825;SDS011;58446;41.490;22.098;2024-03-29T12:55:40;3.67;;;0.83;;
70825;SDS011;58446;41.490;22.098;2024-03-29T12:58:10;3.53;;;0.68;;
70825;SDS011;58446;41.490;22.098;2024-03-29T13:00:41;4.55;;;0.80;;
70825;SDS011;58446;41.490;22.098;2024-03-29T13:03:07;4.43;;;1.00;;
70825;SDS011;58446;41.490;22.098;2024-03-29T13:05:37;4.78;;;1.00;;
70825;SDS011;58446;41.490;22.098;2024-03-29T13:08:12;4.33;;;1.07;;
70825;SDS011;58446;41.490;22.098;2024-03-29T13:10:42;4.65;;;1.05;;
70825;SDS011;58446;41.490;22.098;2024-03-29T13:13:09;3.97;;;0.77;;
70825;SDS011;58446;41.490;22.098;2024-03-29T13:15:36;6.20;;;0.80;;
70825;SDS011;58446;41.490;22.098;2024-03-29T13:18:03;3.92;;;0.82;;
70825;SDS011;58446;41.490;22.098;2024-03-29T13:20:30;5.57;;;0.90;;
70825;SDS011;58446;41.490;22.098;2024-03-29T13:22:58;5.07;;;0.95;;
70825;SDS011;58446;41.490;22.098;2024-03-29T13:25:24;4.53;;;0.88;;
70825;SDS011;58446;41.490;22.098;2024-03-29T13:27:50;6.20;;;1.20;;
70825;SDS011;58446;41.490;22.098;2024-03-29T13:30:20;6.05;;;1.30;;
70825;SDS011;58446;41.490;22.098;2024-03-29T13:32:47;4.67;;;0.93;;
70825;SDS011;58446;41.490;22.098;2024-03-29T13:35:13;6.05;;;1.13;;
70825;SDS011;58446;41.490;22.098;2024-03-29T13:37:40;4.28;;;1.00;;
70825;SDS011;58446;41.490;22.098;2024-03-29T13:40:17;5.82;;;0.90;;
70825;SDS011;58446;41.490;22.098;2024-03-29T13:42:44;4.95;;;0.90;;
70825;SDS011;58446;41.490;22.098;2024-03-29T13:45:09;7.93;;;1.60;;
70825;SDS011;58446;41.490;22.098;2024-03-29T13:47:39;5.22;;;0.98;;
70825;SDS011;58446;41.490;22.098;2024-03-29T13:50:06;6.05;;;1.27;;
70825;SDS011;58446;41.490;22.098;2024-03-29T13:52:32;5.30;;;0.80;;
70825;SDS011;58446;41.490;22.098;2024-03-29T13:54:59;3.45;;;0.82;;
70825;SDS011;58446;41.490;22.098;2024-03-29T13:57:25;4.80;;;0.90;;
70825;SDS011;58446;41.490;22.098;2024-03-29T13:59:51;5.40;;;0.90;;
70825;SDS011;58446;41.490;22.098;2024-03-29T14:02:18;3.97;;;1.20;;
70825;SDS011;58446;41.490;22.098;2024-03-29T14:04:44;4.38;;;0.73;;
70825;SDS011;58446;41.490;22.098;2024-03-29T14:07:13;4.18;;;1.08;;
70825;SDS011;58446;41.490;22.098;2024-03-29T14:09:40;4.85;;;0.98;;
70825;SDS011;58446;41.490;22.098;2024-03-29T14:12:07;7.53;;;2.70;;
70825;SDS011;58446;41.490;22.098;2024-03-29T14:14:33;6.30;;;0.87;;
70825;SDS011;58446;41.490;22.098;2024-03-29T14:16:59;5.05;;;0.70;;
70825;SDS011;58446;41.490;22.098;2024-03-29T14:19:34;4.38;;;0.63;;
70825;SDS011;58446;41.490;22.098;2024-03-29T14:22:02;5.05;;;1.20;;
70825;SDS011;58446;41.490;22.098;2024-03-29T14:24:29;5.70;;;1.30;;
70825;SDS011;58446;41.490;22.098;2024-03-29T14:26:59;5.70;;;1.73;;
70825;SDS011;58446;41.490;22.098;2024-03-29T14:29:25;6.13;;;2.08;;
70825;SDS011;58446;41.490;22.098;2024-03-29T14:31:52;5.45;;;1.35;;
70825;SDS011;58446;41.490;22.098;2024-03-29T14:34:20;4.63;;;1.13;;